createdAt,value
2018-02-07T00:03:02.403Z,-0.16
2018-02-07T00:13:02.515Z,-0.41
2018-02-07T00:23:02.358Z,-0.66
2018-02-07T00:33:02.378Z,-0.59
2018-02-07T00:43:02.467Z,-0.62
2018-02-07T00:53:02.725Z,-0.86
2018-02-07T01:03:02.455Z,-0.99
2018-02-07T01:13:02.514Z,-0.95
2018-02-07T01:23:02.463Z,-1.07
2018-02-07T01:33:02.494Z,-1.2
2018-02-07T01:43:02.472Z,-1.06
2018-02-07T01:53:02.558Z,-1.3
2018-02-07T02:03:02.515Z,-1.25
2018-02-07T02:13:02.491Z,-1.35
2018-02-07T02:23:02.533Z,-1.49
2018-02-07T02:33:02.503Z,-1.41
2018-02-07T02:43:02.602Z,-1.48
2018-02-07T02:53:02.533Z,-1.42
2018-02-07T03:03:02.567Z,-1.46
2018-02-07T03:13:02.549Z,-1.45
2018-02-07T03:23:02.507Z,-1.64
2018-02-07T03:33:02.564Z,-1.53
2018-02-07T03:43:02.523Z,-1.56
2018-02-07T03:53:02.627Z,-1.6
2018-02-07T04:03:02.544Z,-1.6
2018-02-07T04:13:02.607Z,-1.77
2018-02-07T04:23:02.584Z,-1.75
2018-02-07T04:33:02.640Z,-1.92
2018-02-07T04:43:02.601Z,-1.98
2018-02-07T04:53:02.541Z,-1.93
2018-02-07T05:03:02.642Z,-2.05
2018-02-07T05:13:02.583Z,-2.16
2018-02-07T05:23:02.631Z,-2.36
2018-02-07T05:33:02.652Z,-2.5
2018-02-07T05:43:02.617Z,-2.79
2018-02-07T05:53:02.641Z,-2.76
2018-02-07T06:03:02.608Z,-2.97
2018-02-07T06:13:02.634Z,-3.07
2018-02-07T06:23:02.695Z,-3.26
2018-02-07T06:33:02.820Z,-3.31
2018-02-07T06:43:02.636Z,-3.29
2018-02-07T06:53:02.798Z,-3.32
2018-02-07T07:03:02.774Z,-3.43
2018-02-07T07:13:02.768Z,-3.46
2018-02-07T07:23:02.773Z,-3.41
2018-02-07T07:33:02.736Z,-3.44
2018-02-07T07:43:02.721Z,-3.43
2018-02-07T07:53:02.692Z,-3.44
2018-02-07T08:03:02.752Z,-3.49
2018-02-07T08:13:02.695Z,-3.36
2018-02-07T08:23:02.968Z,-3.35
2018-02-07T08:33:02.731Z,-3.26
2018-02-07T08:43:02.810Z,-2.99
2018-02-07T08:53:02.718Z,-2.82
2018-02-07T09:03:02.827Z,-2.36
2018-02-07T09:13:02.741Z,-1.98
2018-02-07T09:23:02.763Z,-1.72
2018-02-07T09:33:02.772Z,-1.46
2018-02-07T09:43:02.741Z,-1.05
2018-02-07T09:53:02.801Z,-1
2018-02-07T10:03:02.740Z,-0.68
2018-02-07T10:13:02.855Z,-0.5
2018-02-07T10:23:02.789Z,-0.23
2018-02-07T10:33:02.770Z,0.05
2018-02-07T10:43:03.972Z,0.36
2018-02-07T10:53:02.798Z,0.46
2018-02-07T11:03:02.890Z,0.76
2018-02-07T11:13:02.797Z,0.86
2018-02-07T11:23:02.849Z,0.94
2018-02-07T11:33:02.861Z,1.18
2018-02-07T11:43:02.890Z,1.36
2018-02-07T11:53:02.900Z,1.36
2018-02-07T12:03:02.929Z,1.61
2018-02-07T12:13:02.899Z,1.82
2018-02-07T12:23:02.940Z,2.02
2018-02-07T12:33:02.950Z,2.2
2018-02-07T12:43:02.863Z,2.15
2018-02-07T12:53:02.959Z,2.17
2018-02-07T13:03:02.876Z,2.12
2018-02-07T13:13:02.975Z,2.27
2018-02-07T13:23:02.926Z,2.3
2018-02-07T13:33:03.009Z,2.46
2018-02-07T13:43:02.948Z,2.49
2018-02-07T13:53:02.980Z,2.48
2018-02-07T14:03:03.001Z,2.31
2018-02-07T14:13:03.001Z,2.28
2018-02-07T14:23:02.966Z,2.38
2018-02-07T14:33:03.050Z,2.2
2018-02-07T14:43:03.010Z,2.12
2018-02-07T14:53:02.960Z,2.15
2018-02-07T15:03:03.046Z,1.98
2018-02-07T15:13:03.091Z,1.83
2018-02-07T15:23:03.127Z,1.71
2018-02-07T15:33:02.990Z,1.57
2018-02-07T15:43:03.359Z,1.52
2018-02-07T15:53:03.060Z,1.26
2018-02-07T16:03:03.116Z,1.21
2018-02-07T16:13:03.036Z,0.82
2018-02-07T16:23:03.040Z,0.64
2018-02-07T16:33:03.065Z,0.33
2018-02-07T16:43:03.106Z,-0.22
2018-02-07T16:53:03.112Z,-0.36
2018-02-07T17:03:03.101Z,-0.62
2018-02-07T17:13:03.126Z,-0.69
2018-02-07T17:23:03.121Z,-0.81
2018-02-07T17:33:03.160Z,-1.35
2018-02-07T17:43:03.166Z,-1.43
2018-02-07T17:53:03.352Z,-1.36
2018-02-07T18:03:03.229Z,-1.3
2018-02-07T18:13:03.117Z,-1.6
2018-02-07T18:23:03.247Z,-1.54
2018-02-07T18:33:03.106Z,-1.63
2018-02-07T18:43:03.220Z,-1.63
2018-02-07T18:53:03.153Z,-1.77
2018-02-07T19:03:03.216Z,-1.59
2018-02-07T19:13:03.182Z,-1.64
2018-02-07T19:23:03.237Z,-1.84
2018-02-07T19:33:03.155Z,-2.05
2018-02-07T19:43:03.185Z,-2.11
2018-02-07T19:53:03.250Z,-2.2
2018-02-07T20:03:03.176Z,-2.32
2018-02-07T20:13:03.270Z,-2.21
2018-02-07T20:23:03.254Z,-2.42
2018-02-07T20:33:03.275Z,-2.57
2018-02-07T20:43:03.272Z,-2.54
2018-02-07T20:53:03.300Z,-2.56
2018-02-07T21:03:03.246Z,-2.87
2018-02-07T21:13:03.305Z,-2.94
2018-02-07T21:23:03.369Z,-3.17
2018-02-07T21:33:03.426Z,-3.41
2018-02-07T21:43:03.297Z,-3.33
2018-02-07T21:53:03.239Z,-3.5
2018-02-07T22:03:03.361Z,-3.47
2018-02-07T22:13:03.264Z,-3.7
2018-02-07T22:23:03.388Z,-3.71
2018-02-07T22:33:03.356Z,-3.81
2018-02-07T22:43:03.481Z,-4.05
2018-02-07T22:53:03.324Z,-3.89
2018-02-07T23:03:03.294Z,-3.9
2018-02-07T23:13:03.565Z,-3.9
2018-02-07T23:23:03.462Z,-4.04
2018-02-07T23:33:03.460Z,-4.08
2018-02-07T23:43:03.423Z,-4.22
2018-02-07T23:53:03.500Z,-4.37
